»·PEaware :: N973SE L52-KBFL

N973SE :: L52-KBFL

FLIGHT INFORMATION

Flight Status: Arrived
Operator: Privately registered:
United States
More flights under this callsign
Pilot: Stig E. (4778)
Aircraft: CESSNA 310
(C310)
More flights by this aircraft type
Origin: L52 Oceano Co
United States
Destination: KBFL Meadows
United States
More flights between these airports :: More routes between these airports
Route: FLW GMN IBWEN LEBEC FASTO
File this flight plan on PilotEdge
Remarks:
Altitude:
(Current/Filed)
9,500ft
Speed:
(Current/Filed)
170kts
Departed: 11-Jan-19 11:09 PM
Arrived: 12-Jan-19 12:21 AM
Distance/Time
Traveled:
79nm/1:12
Distance/Time
To Go:
Arrived

Flight Plot

Page will automatically refresh every two minutes.

Flight plan parsing failed; only flown route is shown


Map Options




Map Legend


Flown Route
Filed Route
Departure Airport
Arrival Airport
Navaid (VOR, NDB)
Fix

Horizontal Profiles

Position Reports

Time Latitude Longitude Heading Altitude Ground
Speed
11-Jan-19 22:36 35.103091 -120.624062 213 15ft 0kts
11-Jan-19 22:37 35.103091 -120.624062 213 15ft 0kts
11-Jan-19 22:38 35.103091 -120.624062 213 15ft 0kts
11-Jan-19 22:39 35.103091 -120.624062 213 15ft 0kts
11-Jan-19 22:40 35.103091 -120.624062 213 15ft 0kts
11-Jan-19 22:41 35.103091 -120.624062 213 15ft 0kts
11-Jan-19 22:42 35.103091 -120.624062 213 15ft 0kts
11-Jan-19 22:44 35.103091 -120.624062 213 15ft 0kts
11-Jan-19 22:45 35.103091 -120.624062 213 15ft 0kts
11-Jan-19 22:46 35.103091 -120.624062 213 15ft 0kts
11-Jan-19 22:47 35.103091 -120.624062 213 15ft 0kts
11-Jan-19 22:48 35.103091 -120.624062 213 15ft 0kts
11-Jan-19 22:49 35.103091 -120.624062 213 15ft 0kts
11-Jan-19 22:50 35.103091 -120.624062 213 15ft 0kts
11-Jan-19 22:51 35.103091 -120.624062 213 15ft 0kts
11-Jan-19 22:52 35.103091 -120.624062 213 15ft 0kts
11-Jan-19 22:53 35.103091 -120.624062 213 15ft 0kts
11-Jan-19 22:54 35.103091 -120.624062 213 15ft 0kts
11-Jan-19 22:55 35.103091 -120.624062 213 15ft 0kts
11-Jan-19 22:56 35.103091 -120.624062 213 15ft 0kts
11-Jan-19 22:57 35.103091 -120.624062 213 15ft 0kts
11-Jan-19 22:58 35.103052 -120.624074 178 15ft 1kts
11-Jan-19 22:59 35.101505 -120.623126 122 15ft 12kts
11-Jan-19 23:00 35.099530 -120.619578 153 17ft 2kts
11-Jan-19 23:01 35.099483 -120.619359 33 17ft 0kts
11-Jan-19 23:02 35.099483 -120.619359 33 17ft 0kts
11-Jan-19 23:03 35.099483 -120.619359 33 17ft 0kts
11-Jan-19 23:04 35.099483 -120.619359 33 17ft 0kts
11-Jan-19 23:04 35.099483 -120.619359 33 17ft 0kts
11-Jan-19 23:05 35.099483 -120.619359 33 17ft 0kts
11-Jan-19 23:06 35.099483 -120.619359 33 17ft 0kts
11-Jan-19 23:07 35.099483 -120.619359 33 17ft 0kts
11-Jan-19 23:09 35.100602 -120.620550 303 16ft 59kts
11-Jan-19 23:10 35.113428 -120.655556 242 1181ft 149kts
11-Jan-19 23:10 35.081672 -120.659303 127 2090ft 155kts
11-Jan-19 23:11 35.058339 -120.615312 120 3094ft 155kts
11-Jan-19 23:12 35.072235 -120.568305 60 4088ft 159kts
11-Jan-19 23:13 35.094040 -120.521348 71 5070ft 159kts
11-Jan-19 23:14 35.099610 -120.469138 95 6043ft 155kts
11-Jan-19 23:15 35.099586 -120.416211 94 7066ft 156kts
11-Jan-19 23:16 35.099163 -120.363170 95 8039ft 157kts
11-Jan-19 23:17 35.098631 -120.310596 97 9010ft 158kts
11-Jan-19 23:18 35.097978 -120.254924 97 9525ft 178kts
11-Jan-19 23:19 35.096703 -120.196601 101 10086ft 147kts
11-Jan-19 23:20 35.096640 -120.160235 105 10572ft 84kts
11-Jan-19 23:21 35.096143 -120.131607 104 10563ft 84kts
11-Jan-19 23:22 35.095783 -120.103751 105 10563ft 80kts
11-Jan-19 23:23 35.095072 -120.088690 104 10572ft 80kts
11-Jan-19 23:24 35.095018 -120.069809 102 10574ft 96kts
11-Jan-19 23:25 35.094902 -120.034331 101 10619ft 107kts
11-Jan-19 23:26 35.094379 -119.999627 103 10878ft 98kts
11-Jan-19 23:27 35.093764 -119.966189 102 11013ft 104kts
11-Jan-19 23:28 35.093304 -119.928694 101 11010ft 115kts
11-Jan-19 23:29 35.092856 -119.888822 100 11010ft 119kts
11-Jan-19 23:30 35.091565 -119.848278 110 11010ft 117kts
11-Jan-19 23:31 35.079040 -119.812187 118 11009ft 116kts
11-Jan-19 23:32 35.068126 -119.777075 117 11005ft 103kts
11-Jan-19 23:33 35.059354 -119.747474 118 10997ft 80kts
11-Jan-19 23:34 35.051742 -119.726156 127 10663ft 64kts
11-Jan-19 23:35 35.043395 -119.706871 121 9918ft 65kts
11-Jan-19 23:36 35.037557 -119.683964 112 9497ft 76kts
11-Jan-19 23:37 35.032343 -119.661801 127 9407ft 61kts
11-Jan-19 23:38 35.024480 -119.643456 123 8756ft 62kts
11-Jan-19 23:39 35.017669 -119.624317 111 8180ft 64kts
11-Jan-19 23:40 35.022180 -119.619573 90 7458ft 116kts
11-Jan-19 23:41 35.019655 -119.584382 95 7435ft 115kts
11-Jan-19 23:42 35.033195 -119.544541 75 7429ft 137kts
11-Jan-19 23:43 35.050488 -119.498403 74 7415ft 160kts
11-Jan-19 23:44 35.069886 -119.445144 74 7413ft 181kts
11-Jan-19 23:45 35.089964 -119.389533 73 7408ft 175kts
11-Jan-19 23:46 35.109911 -119.334533 74 7414ft 181kts
11-Jan-19 23:47 35.117607 -119.279709 140 7589ft 156kts
11-Jan-19 23:48 35.079795 -119.256031 152 8087ft 150kts
11-Jan-19 23:49 35.042306 -119.233813 152 8572ft 149kts
11-Jan-19 23:50 35.005073 -119.211323 152 9056ft 150kts
11-Jan-19 23:51 34.967912 -119.187649 152 9444ft 155kts
11-Jan-19 23:52 34.928359 -119.161295 152 9493ft 164kts
11-Jan-19 23:53 34.887363 -119.135499 142 9504ft 172kts
11-Jan-19 23:54 34.859912 -119.086762 121 9512ft 180kts
11-Jan-19 23:55 34.840604 -119.030107 116 9522ft 181kts
11-Jan-19 23:56 34.823322 -118.972808 115 9550ft 180kts
11-Jan-19 23:57 34.806616 -118.915561 112 9573ft 179kts
11-Jan-19 23:58 34.812125 -118.858354 29 9594ft 213kts
11-Jan-19 23:59 34.866121 -118.887094 331 9578ft 224kts
12-Jan-19 00:00 34.922972 -118.917931 337 9560ft 224kts
12-Jan-19 00:01 34.978448 -118.945385 339 9299ft 208kts
12-Jan-19 00:02 35.031881 -118.971383 341 8716ft 205kts
12-Jan-19 00:03 35.084771 -118.997044 341 8133ft 205kts
12-Jan-19 00:04 35.137430 -119.022637 340 7532ft 204kts
12-Jan-19 00:05 35.190098 -119.048270 341 6920ft 203kts
12-Jan-19 00:06 35.242289 -119.073703 341 6313ft 201kts
12-Jan-19 00:07 35.293836 -119.098859 341 5706ft 200kts
12-Jan-19 00:08 35.345489 -119.124109 341 5105ft 199kts
12-Jan-19 00:09 35.396569 -119.149105 342 4509ft 196kts
12-Jan-19 00:10 35.446140 -119.173402 343 3913ft 187kts
12-Jan-19 00:11 35.492757 -119.196284 342 3502ft 168kts
12-Jan-19 00:12 35.533222 -119.216159 341 3506ft 149kts
12-Jan-19 00:13 35.570326 -119.223610 45 3149ft 136kts
12-Jan-19 00:14 35.559475 -119.184791 135 1964ft 138kts
12-Jan-19 00:15 35.533650 -119.156149 136 1421ft 110kts
12-Jan-19 00:16 35.507328 -119.137724 150 1456ft 110kts
12-Jan-19 00:17 35.482805 -119.116160 129 1398ft 104kts
12-Jan-19 00:18 35.461666 -119.090330 129 1086ft 109kts
12-Jan-19 00:19 35.441076 -119.064889 129 505ft 76kts
12-Jan-19 00:20 35.437406 -119.057275 69 497ft 6kts
12-Jan-19 00:21 35.437665 -119.056286 270 501ft 0kts
12-Jan-19 00:22 35.437665 -119.056286 270 501ft 0kts
12-Jan-19 00:23 35.437665 -119.056286 270 501ft 0kts
12-Jan-19 00:24 35.437665 -119.056286 269 501ft 0kts
12-Jan-19 00:25 35.437665 -119.056286 270 501ft 0kts
12-Jan-19 00:26 35.437665 -119.056286 270 501ft 0kts

Navigation Log

Ident Type
Flight plan parsing failed, navigation log unavailable